sensor_id;sensor_type;location;lat;lon;timestamp;P1;durP1;ratioP1;P2;durP2;ratioP2
11964;SDS011;6042;41.326;19.826;2022-10-20T00:00:04;6.73;;;4.60;;
11964;SDS011;6042;41.326;19.826;2022-10-20T00:02:33;9.13;;;4.63;;
11964;SDS011;6042;41.326;19.826;2022-10-20T00:05:04;7.03;;;4.53;;
11964;SDS011;6042;41.326;19.826;2022-10-20T00:07:33;15.10;;;4.90;;
11964;SDS011;6042;41.326;19.826;2022-10-20T00:10:01;9.03;;;4.37;;
11964;SDS011;6042;41.326;19.826;2022-10-20T00:12:30;5.63;;;4.17;;
11964;SDS011;6042;41.326;19.826;2022-10-20T00:14:59;5.70;;;4.43;;
11964;SDS011;6042;41.326;19.826;2022-10-20T00:17:28;8.07;;;4.87;;
11964;SDS011;6042;41.326;19.826;2022-10-20T00:19:57;7.13;;;4.43;;
11964;SDS011;6042;41.326;19.826;2022-10-20T00:22:27;5.27;;;4.77;;
11964;SDS011;6042;41.326;19.826;2022-10-20T00:24:58;28.73;;;6.77;;
11964;SDS011;6042;41.326;19.826;2022-10-20T00:27:27;7.30;;;5.10;;
11964;SDS011;6042;41.326;19.826;2022-10-20T00:29:55;14.13;;;4.73;;
11964;SDS011;6042;41.326;19.826;2022-10-20T00:32:24;9.13;;;4.40;;
11964;SDS011;6042;41.326;19.826;2022-10-20T00:34:53;5.90;;;4.70;;
11964;SDS011;6042;41.326;19.826;2022-10-20T00:37:21;5.47;;;4.80;;
11964;SDS011;6042;41.326;19.826;2022-10-20T00:39:52;7.27;;;4.60;;
11964;SDS011;6042;41.326;19.826;2022-10-20T00:42:21;6.67;;;4.80;;
11964;SDS011;6042;41.326;19.826;2022-10-20T00:44:51;6.30;;;4.80;;
11964;SDS011;6042;41.326;19.826;2022-10-20T00:47:24;5.83;;;4.13;;
11964;SDS011;6042;41.326;19.826;2022-10-20T00:50:04;6.10;;;4.10;;
11964;SDS011;6042;41.326;19.826;2022-10-20T00:52:37;4.93;;;4.40;;
11964;SDS011;6042;41.326;19.826;2022-10-20T00:55:09;8.23;;;4.83;;
11964;SDS011;6042;41.326;19.826;2022-10-20T00:57:40;6.13;;;4.10;;
11964;SDS011;6042;41.326;19.826;2022-10-20T01:00:11;7.33;;;3.73;;
11964;SDS011;6042;41.326;19.826;2022-10-20T01:02:41;5.53;;;4.00;;
11964;SDS011;6042;41.326;19.826;2022-10-20T01:05:10;6.87;;;3.83;;
11964;SDS011;6042;41.326;19.826;2022-10-20T01:07:40;5.27;;;3.67;;
11964;SDS011;6042;41.326;19.826;2022-10-20T01:10:10;4.43;;;3.60;;
11964;SDS011;6042;41.326;19.826;2022-10-20T01:12:42;6.63;;;4.30;;
11964;SDS011;6042;41.326;19.826;2022-10-20T01:15:22;8.50;;;4.10;;
11964;SDS011;6042;41.326;19.826;2022-10-20T01:17:57;7.07;;;3.77;;
11964;SDS011;6042;41.326;19.826;2022-10-20T01:20:43;9.47;;;4.27;;
11964;SDS011;6042;41.326;19.826;2022-10-20T01:23:47;8.97;;;3.53;;
11964;SDS011;6042;41.326;19.826;2022-10-20T01:26:46;3.90;;;3.60;;
11964;SDS011;6042;41.326;19.826;2022-10-20T01:29:39;8.73;;;3.70;;
11964;SDS011;6042;41.326;19.826;2022-10-20T01:32:14;5.10;;;4.10;;
11964;SDS011;6042;41.326;19.826;2022-10-20T01:34:49;4.97;;;4.23;;
11964;SDS011;6042;41.326;19.826;2022-10-20T01:37:27;4.17;;;3.77;;
11964;SDS011;6042;41.326;19.826;2022-10-20T01:40:20;4.80;;;4.00;;
11964;SDS011;6042;41.326;19.826;2022-10-20T01:42:53;7.03;;;4.47;;
11964;SDS011;6042;41.326;19.826;2022-10-20T01:45:29;4.57;;;3.30;;
11964;SDS011;6042;41.326;19.826;2022-10-20T01:48:01;8.27;;;4.33;;
11964;SDS011;6042;41.326;19.826;2022-10-20T01:50:32;42.67;;;6.40;;
11964;SDS011;6042;41.326;19.826;2022-10-20T01:53:02;7.03;;;3.80;;
11964;SDS011;6042;41.326;19.826;2022-10-20T01:55:31;7.00;;;3.80;;
11964;SDS011;6042;41.326;19.826;2022-10-20T01:58:12;6.43;;;4.00;;
11964;SDS011;6042;41.326;19.826;2022-10-20T02:00:56;6.33;;;4.13;;
11964;SDS011;6042;41.326;19.826;2022-10-20T02:03:33;4.27;;;3.83;;
11964;SDS011;6042;41.326;19.826;2022-10-20T02:06:10;5.40;;;3.63;;
11964;SDS011;6042;41.326;19.826;2022-10-20T02:08:49;5.97;;;4.07;;
11964;SDS011;6042;41.326;19.826;2022-10-20T02:11:21;5.00;;;4.50;;
11964;SDS011;6042;41.326;19.826;2022-10-20T02:13:53;5.07;;;4.20;;
11964;SDS011;6042;41.326;19.826;2022-10-20T02:16:26;5.70;;;5.10;;
11964;SDS011;6042;41.326;19.826;2022-10-20T02:18:59;5.57;;;4.70;;
11964;SDS011;6042;41.326;19.826;2022-10-20T02:21:28;5.30;;;4.80;;
11964;SDS011;6042;41.326;19.826;2022-10-20T02:23:58;6.87;;;5.10;;
11964;SDS011;6042;41.326;19.826;2022-10-20T02:26:33;5.33;;;4.83;;
11964;SDS011;6042;41.326;19.826;2022-10-20T02:29:08;4.67;;;4.27;;
11964;SDS011;6042;41.326;19.826;2022-10-20T02:31:40;8.93;;;4.67;;
11964;SDS011;6042;41.326;19.826;2022-10-20T02:34:10;5.50;;;4.23;;
11964;SDS011;6042;41.326;19.826;2022-10-20T02:36:41;4.83;;;4.13;;
11964;SDS011;6042;41.326;19.826;2022-10-20T02:39:11;4.83;;;4.17;;
11964;SDS011;6042;41.326;19.826;2022-10-20T02:41:39;8.50;;;4.60;;
11964;SDS011;6042;41.326;19.826;2022-10-20T02:44:08;4.87;;;4.47;;
11964;SDS011;6042;41.326;19.826;2022-10-20T02:46:37;7.23;;;4.53;;
11964;SDS011;6042;41.326;19.826;2022-10-20T02:49:07;7.20;;;4.40;;
11964;SDS011;6042;41.326;19.826;2022-10-20T02:51:36;5.07;;;4.50;;
11964;SDS011;6042;41.326;19.826;2022-10-20T02:54:05;4.30;;;3.90;;
11964;SDS011;6042;41.326;19.826;2022-10-20T02:56:33;4.20;;;3.83;;
11964;SDS011;6042;41.326;19.826;2022-10-20T02:59:02;5.73;;;4.30;;
11964;SDS011;6042;41.326;19.826;2022-10-20T03:01:31;5.50;;;4.03;;
11964;SDS011;6042;41.326;19.826;2022-10-20T03:04:00;3.97;;;3.40;;
11964;SDS011;6042;41.326;19.826;2022-10-20T03:06:30;5.57;;;3.80;;
11964;SDS011;6042;41.326;19.826;2022-10-20T03:08:58;4.90;;;3.70;;
11964;SDS011;6042;41.326;19.826;2022-10-20T03:11:27;5.07;;;4.03;;
11964;SDS011;6042;41.326;19.826;2022-10-20T03:13:56;6.10;;;3.37;;
11964;SDS011;6042;41.326;19.826;2022-10-20T03:16:24;5.60;;;3.77;;
11964;SDS011;6042;41.326;19.826;2022-10-20T03:18:53;4.90;;;3.60;;
11964;SDS011;6042;41.326;19.826;2022-10-20T03:21:30;4.50;;;3.40;;
11964;SDS011;6042;41.326;19.826;2022-10-20T03:23:59;4.33;;;3.93;;
11964;SDS011;6042;41.326;19.826;2022-10-20T03:26:28;4.27;;;3.83;;
11964;SDS011;6042;41.326;19.826;2022-10-20T03:28:56;5.17;;;3.57;;
11964;SDS011;6042;41.326;19.826;2022-10-20T03:31:25;4.03;;;3.50;;
11964;SDS011;6042;41.326;19.826;2022-10-20T03:33:54;4.10;;;3.70;;
11964;SDS011;6042;41.326;19.826;2022-10-20T03:36:23;5.67;;;3.90;;
11964;SDS011;6042;41.326;19.826;2022-10-20T03:38:53;4.87;;;3.67;;
11964;SDS011;6042;41.326;19.826;2022-10-20T03:41:21;5.57;;;3.83;;
11964;SDS011;6042;41.326;19.826;2022-10-20T03:43:50;4.83;;;3.90;;
11964;SDS011;6042;41.326;19.826;2022-10-20T03:46:20;4.63;;;4.20;;
11964;SDS011;6042;41.326;19.826;2022-10-20T03:48:48;6.30;;;4.17;;
11964;SDS011;6042;41.326;19.826;2022-10-20T03:51:17;5.43;;;4.70;;
11964;SDS011;6042;41.326;19.826;2022-10-20T03:53:46;10.67;;;4.80;;
11964;SDS011;6042;41.326;19.826;2022-10-20T03:56:17;7.97;;;4.50;;
11964;SDS011;6042;41.326;19.826;2022-10-20T03:58:47;4.83;;;4.37;;
11964;SDS011;6042;41.326;19.826;2022-10-20T04:01:17;5.83;;;4.30;;
11964;SDS011;6042;41.326;19.826;2022-10-20T04:03:47;6.10;;;4.47;;
11964;SDS011;6042;41.326;19.826;2022-10-20T04:06:16;8.63;;;4.73;;
11964;SDS011;6042;41.326;19.826;2022-10-20T04:08:45;6.43;;;4.33;;
11964;SDS011;6042;41.326;19.826;2022-10-20T04:11:13;9.67;;;4.80;;
11964;SDS011;6042;41.326;19.826;2022-10-20T04:13:44;7.93;;;4.93;;
11964;SDS011;6042;41.326;19.826;2022-10-20T04:16:12;6.27;;;4.80;;
11964;SDS011;6042;41.326;19.826;2022-10-20T04:18:41;10.37;;;4.87;;
11964;SDS011;6042;41.326;19.826;2022-10-20T04:21:09;7.60;;;4.90;;
11964;SDS011;6042;41.326;19.826;2022-10-20T04:23:38;7.67;;;4.87;;
11964;SDS011;6042;41.326;19.826;2022-10-20T04:26:07;6.20;;;5.27;;
11964;SDS011;6042;41.326;19.826;2022-10-20T04:28:36;8.57;;;5.17;;
11964;SDS011;6042;41.326;19.826;2022-10-20T04:31:07;10.03;;;5.57;;
11964;SDS011;6042;41.326;19.826;2022-10-20T04:33:36;5.20;;;4.70;;
11964;SDS011;6042;41.326;19.826;2022-10-20T04:36:05;16.13;;;5.43;;
11964;SDS011;6042;41.326;19.826;2022-10-20T04:38:35;6.17;;;5.00;;
11964;SDS011;6042;41.326;19.826;2022-10-20T04:41:04;8.40;;;5.27;;
11964;SDS011;6042;41.326;19.826;2022-10-20T04:43:33;9.23;;;5.43;;
11964;SDS011;6042;41.326;19.826;2022-10-20T04:46:02;10.40;;;5.90;;
11964;SDS011;6042;41.326;19.826;2022-10-20T04:48:36;9.13;;;5.53;;
11964;SDS011;6042;41.326;19.826;2022-10-20T04:51:09;8.60;;;5.60;;
11964;SDS011;6042;41.326;19.826;2022-10-20T04:53:39;6.30;;;5.67;;
11964;SDS011;6042;41.326;19.826;2022-10-20T04:56:09;7.97;;;4.83;;
11964;SDS011;6042;41.326;19.826;2022-10-20T04:58:40;11.30;;;5.80;;
11964;SDS011;6042;41.326;19.826;2022-10-20T05:01:09;8.13;;;5.27;;
11964;SDS011;6042;41.326;19.826;2022-10-20T05:03:39;8.60;;;6.03;;
11964;SDS011;6042;41.326;19.826;2022-10-20T05:06:09;8.40;;;6.47;;
11964;SDS011;6042;41.326;19.826;2022-10-20T05:08:39;18.70;;;7.20;;
11964;SDS011;6042;41.326;19.826;2022-10-20T05:11:09;16.80;;;5.87;;
11964;SDS011;6042;41.326;19.826;2022-10-20T05:13:39;14.20;;;6.50;;
11964;SDS011;6042;41.326;19.826;2022-10-20T05:16:08;11.30;;;5.90;;
11964;SDS011;6042;41.326;19.826;2022-10-20T05:18:39;17.83;;;7.27;;
11964;SDS011;6042;41.326;19.826;2022-10-20T05:21:08;17.33;;;6.93;;
11964;SDS011;6042;41.326;19.826;2022-10-20T05:23:39;17.50;;;6.50;;
11964;SDS011;6042;41.326;19.826;2022-10-20T05:26:10;19.57;;;6.93;;
11964;SDS011;6042;41.326;19.826;2022-10-20T05:28:41;14.17;;;6.87;;
11964;SDS011;6042;41.326;19.826;2022-10-20T05:31:11;19.17;;;7.03;;
11964;SDS011;6042;41.326;19.826;2022-10-20T05:33:44;25.60;;;7.60;;
11964;SDS011;6042;41.326;19.826;2022-10-20T05:36:14;22.27;;;7.37;;
11964;SDS011;6042;41.326;19.826;2022-10-20T05:38:47;13.97;;;6.83;;
11964;SDS011;6042;41.326;19.826;2022-10-20T05:41:18;11.43;;;6.27;;
11964;SDS011;6042;41.326;19.826;2022-10-20T05:43:49;12.77;;;6.83;;
11964;SDS011;6042;41.326;19.826;2022-10-20T05:46:19;11.77;;;6.57;;
11964;SDS011;6042;41.326;19.826;2022-10-20T05:48:50;17.03;;;7.37;;
11964;SDS011;6042;41.326;19.826;2022-10-20T05:51:21;10.40;;;6.20;;
11964;SDS011;6042;41.326;19.826;2022-10-20T05:53:53;13.93;;;6.80;;
11964;SDS011;6042;41.326;19.826;2022-10-20T05:56:24;19.03;;;6.83;;
11964;SDS011;6042;41.326;19.826;2022-10-20T05:58:54;15.63;;;6.70;;
11964;SDS011;6042;41.326;19.826;2022-10-20T06:01:24;18.33;;;7.70;;
11964;SDS011;6042;41.326;19.826;2022-10-20T06:04:05;15.30;;;7.53;;
11964;SDS011;6042;41.326;19.826;2022-10-20T06:06:35;12.43;;;6.43;;
11964;SDS011;6042;41.326;19.826;2022-10-20T06:09:04;31.43;;;8.30;;
11964;SDS011;6042;41.326;19.826;2022-10-20T06:11:34;11.00;;;6.53;;
11964;SDS011;6042;41.326;19.826;2022-10-20T06:14:05;17.83;;;7.33;;
11964;SDS011;6042;41.326;19.826;2022-10-20T06:16:34;11.90;;;6.73;;
11964;SDS011;6042;41.326;19.826;2022-10-20T06:19:04;29.03;;;10.43;;
11964;SDS011;6042;41.326;19.826;2022-10-20T06:21:34;44.60;;;10.10;;
11964;SDS011;6042;41.326;19.826;2022-10-20T06:24:05;30.70;;;9.33;;
11964;SDS011;6042;41.326;19.826;2022-10-20T06:26:34;23.07;;;10.13;;
11964;SDS011;6042;41.326;19.826;2022-10-20T06:29:04;13.77;;;7.47;;
11964;SDS011;6042;41.326;19.826;2022-10-20T06:31:35;19.63;;;7.90;;
11964;SDS011;6042;41.326;19.826;2022-10-20T06:34:07;25.20;;;8.93;;
11964;SDS011;6042;41.326;19.826;2022-10-20T06:36:39;37.57;;;9.77;;
11964;SDS011;6042;41.326;19.826;2022-10-20T06:39:10;23.97;;;8.77;;
11964;SDS011;6042;41.326;19.826;2022-10-20T06:41:45;18.00;;;7.23;;
11964;SDS011;6042;41.326;19.826;2022-10-20T06:44:19;62.07;;;14.97;;
11964;SDS011;6042;41.326;19.826;2022-10-20T06:46:49;45.53;;;11.60;;
11964;SDS011;6042;41.326;19.826;2022-10-20T06:49:20;19.13;;;9.17;;
11964;SDS011;6042;41.326;19.826;2022-10-20T06:51:49;22.37;;;9.33;;
11964;SDS011;6042;41.326;19.826;2022-10-20T06:54:18;17.23;;;8.43;;
11964;SDS011;6042;41.326;19.826;2022-10-20T06:56:46;14.43;;;7.20;;
11964;SDS011;6042;41.326;19.826;2022-10-20T06:59:15;16.80;;;7.93;;
11964;SDS011;6042;41.326;19.826;2022-10-20T07:01:44;45.67;;;10.43;;
11964;SDS011;6042;41.326;19.826;2022-10-20T07:04:13;59.00;;;12.57;;
11964;SDS011;6042;41.326;19.826;2022-10-20T07:06:44;36.97;;;12.33;;
11964;SDS011;6042;41.326;19.826;2022-10-20T07:09:14;26.27;;;11.00;;
11964;SDS011;6042;41.326;19.826;2022-10-20T07:11:49;32.03;;;10.70;;
11964;SDS011;6042;41.326;19.826;2022-10-20T07:14:18;26.83;;;10.80;;
11964;SDS011;6042;41.326;19.826;2022-10-20T07:16:46;29.50;;;9.00;;
11964;SDS011;6042;41.326;19.826;2022-10-20T07:19:15;19.97;;;9.40;;
11964;SDS011;6042;41.326;19.826;2022-10-20T07:21:45;20.77;;;9.33;;
11964;SDS011;6042;41.326;19.826;2022-10-20T07:24:14;26.90;;;10.23;;
11964;SDS011;6042;41.326;19.826;2022-10-20T07:26:43;19.60;;;10.50;;
11964;SDS011;6042;41.326;19.826;2022-10-20T07:29:12;23.17;;;10.13;;
11964;SDS011;6042;41.326;19.826;2022-10-20T07:31:41;31.53;;;12.63;;
11964;SDS011;6042;41.326;19.826;2022-10-20T07:34:12;23.57;;;13.70;;
11964;SDS011;6042;41.326;19.826;2022-10-20T07:36:54;26.27;;;14.23;;
11964;SDS011;6042;41.326;19.826;2022-10-20T07:39:23;29.70;;;14.80;;
11964;SDS011;6042;41.326;19.826;2022-10-20T07:41:52;30.80;;;14.67;;
11964;SDS011;6042;41.326;19.826;2022-10-20T07:44:21;33.93;;;16.13;;
11964;SDS011;6042;41.326;19.826;2022-10-20T07:46:50;33.60;;;15.23;;
11964;SDS011;6042;41.326;19.826;2022-10-20T07:49:18;33.77;;;14.80;;
11964;SDS011;6042;41.326;19.826;2022-10-20T07:52:08;28.67;;;14.57;;
11964;SDS011;6042;41.326;19.826;2022-10-20T07:54:38;34.07;;;15.43;;
11964;SDS011;6042;41.326;19.826;2022-10-20T07:57:07;29.10;;;15.40;;
11964;SDS011;6042;41.326;19.826;2022-10-20T07:59:36;23.80;;;14.07;;
11964;SDS011;6042;41.326;19.826;2022-10-20T08:02:05;30.53;;;14.57;;
11964;SDS011;6042;41.326;19.826;2022-10-20T08:04:34;22.20;;;14.17;;
11964;SDS011;6042;41.326;19.826;2022-10-20T08:07:03;25.50;;;13.83;;
11964;SDS011;6042;41.326;19.826;2022-10-20T08:09:33;27.37;;;13.17;;
11964;SDS011;6042;41.326;19.826;2022-10-20T08:12:02;17.63;;;10.90;;
11964;SDS011;6042;41.326;19.826;2022-10-20T08:14:31;29.70;;;14.20;;
11964;SDS011;6042;41.326;19.826;2022-10-20T08:17:02;30.63;;;14.07;;
11964;SDS011;6042;41.326;19.826;2022-10-20T08:19:31;23.17;;;12.10;;
11964;SDS011;6042;41.326;19.826;2022-10-20T08:22:19;21.83;;;12.30;;
11964;SDS011;6042;41.326;19.826;2022-10-20T08:24:49;23.37;;;13.47;;
11964;SDS011;6042;41.326;19.826;2022-10-20T08:27:19;31.00;;;14.27;;
11964;SDS011;6042;41.326;19.826;2022-10-20T08:29:48;24.73;;;13.27;;
11964;SDS011;6042;41.326;19.826;2022-10-20T08:32:31;27.53;;;13.50;;
11964;SDS011;6042;41.326;19.826;2022-10-20T08:35:01;28.90;;;14.00;;
11964;SDS011;6042;41.326;19.826;2022-10-20T08:37:30;25.37;;;13.20;;
11964;SDS011;6042;41.326;19.826;2022-10-20T08:40:00;40.40;;;12.17;;
11964;SDS011;6042;41.326;19.826;2022-10-20T08:42:32;37.80;;;13.87;;
11964;SDS011;6042;41.326;19.826;2022-10-20T08:45:12;23.47;;;12.00;;
11964;SDS011;6042;41.326;19.826;2022-10-20T08:47:42;19.67;;;11.83;;
11964;SDS011;6042;41.326;19.826;2022-10-20T08:50:14;23.37;;;12.07;;
11964;SDS011;6042;41.326;19.826;2022-10-20T08:52:44;18.97;;;11.50;;
11964;SDS011;6042;41.326;19.826;2022-10-20T08:55:18;25.63;;;13.10;;
11964;SDS011;6042;41.326;19.826;2022-10-20T08:57:51;23.40;;;11.23;;
11964;SDS011;6042;41.326;19.826;2022-10-20T09:00:25;23.97;;;11.30;;
11964;SDS011;6042;41.326;19.826;2022-10-20T09:02:59;21.23;;;11.60;;
11964;SDS011;6042;41.326;19.826;2022-10-20T09:05:36;20.83;;;11.33;;
11964;SDS011;6042;41.326;19.826;2022-10-20T09:08:09;22.47;;;11.23;;
11964;SDS011;6042;41.326;19.826;2022-10-20T09:10:40;23.80;;;11.80;;
11964;SDS011;6042;41.326;19.826;2022-10-20T09:13:18;18.17;;;10.97;;
11964;SDS011;6042;41.326;19.826;2022-10-20T09:15:49;21.17;;;11.00;;
11964;SDS011;6042;41.326;19.826;2022-10-20T09:18:21;23.83;;;11.30;;
11964;SDS011;6042;41.326;19.826;2022-10-20T09:20:50;27.43;;;11.80;;
11964;SDS011;6042;41.326;19.826;2022-10-20T09:23:23;15.33;;;8.63;;
11964;SDS011;6042;41.326;19.826;2022-10-20T09:26:14;16.57;;;9.33;;
11964;SDS011;6042;41.326;19.826;2022-10-20T09:29:05;12.70;;;8.90;;
11964;SDS011;6042;41.326;19.826;2022-10-20T09:31:39;17.27;;;9.90;;
11964;SDS011;6042;41.326;19.826;2022-10-20T09:34:22;14.57;;;8.10;;
11964;SDS011;6042;41.326;19.826;2022-10-20T09:36:53;13.13;;;8.30;;
11964;SDS011;6042;41.326;19.826;2022-10-20T09:39:26;20.63;;;11.87;;
11964;SDS011;6042;41.326;19.826;2022-10-20T09:42:00;14.00;;;7.80;;
11964;SDS011;6042;41.326;19.826;2022-10-20T09:44:31;12.23;;;7.47;;
11964;SDS011;6042;41.326;19.826;2022-10-20T09:47:14;11.47;;;8.30;;
11964;SDS011;6042;41.326;19.826;2022-10-20T09:49:44;12.10;;;7.47;;
11964;SDS011;6042;41.326;19.826;2022-10-20T09:52:15;17.57;;;8.57;;
11964;SDS011;6042;41.326;19.826;2022-10-20T09:54:46;14.57;;;8.43;;
11964;SDS011;6042;41.326;19.826;2022-10-20T09:57:18;13.50;;;8.03;;
11964;SDS011;6042;41.326;19.826;2022-10-20T09:59:49;15.70;;;8.43;;
11964;SDS011;6042;41.326;19.826;2022-10-20T10:02:27;8.23;;;7.10;;
11964;SDS011;6042;41.326;19.826;2022-10-20T10:05:11;13.27;;;7.57;;
11964;SDS011;6042;41.326;19.826;2022-10-20T10:07:44;12.10;;;6.73;;
11964;SDS011;6042;41.326;19.826;2022-10-20T10:10:25;9.90;;;6.73;;
11964;SDS011;6042;41.326;19.826;2022-10-20T10:12:58;15.97;;;8.50;;
11964;SDS011;6042;41.326;19.826;2022-10-20T10:15:30;8.87;;;6.40;;
11964;SDS011;6042;41.326;19.826;2022-10-20T10:17:59;12.57;;;6.50;;
11964;SDS011;6042;41.326;19.826;2022-10-20T10:20:40;11.90;;;6.47;;
11964;SDS011;6042;41.326;19.826;2022-10-20T10:23:19;12.10;;;6.10;;
11964;SDS011;6042;41.326;19.826;2022-10-20T10:25:50;9.13;;;6.57;;
11964;SDS011;6042;41.326;19.826;2022-10-20T10:28:30;11.50;;;5.97;;
11964;SDS011;6042;41.326;19.826;2022-10-20T10:31:08;14.00;;;6.30;;
11964;SDS011;6042;41.326;19.826;2022-10-20T10:33:49;5.90;;;4.83;;
11964;SDS011;6042;41.326;19.826;2022-10-20T10:36:27;8.90;;;6.07;;
11964;SDS011;6042;41.326;19.826;2022-10-20T10:38:58;7.07;;;5.60;;
11964;SDS011;6042;41.326;19.826;2022-10-20T10:41:35;6.33;;;5.10;;
11964;SDS011;6042;41.326;19.826;2022-10-20T10:44:18;8.93;;;5.50;;
11964;SDS011;6042;41.326;19.826;2022-10-20T10:46:58;7.50;;;5.90;;
11964;SDS011;6042;41.326;19.826;2022-10-20T10:49:44;8.87;;;6.00;;
11964;SDS011;6042;41.326;19.826;2022-10-20T10:52:26;12.53;;;6.37;;
11964;SDS011;6042;41.326;19.826;2022-10-20T10:55:07;11.47;;;6.67;;
11964;SDS011;6042;41.326;19.826;2022-10-20T10:58:05;10.27;;;7.17;;
11964;SDS011;6042;41.326;19.826;2022-10-20T11:00:47;8.57;;;6.40;;
11964;SDS011;6042;41.326;19.826;2022-10-20T11:03:33;9.23;;;6.83;;
11964;SDS011;6042;41.326;19.826;2022-10-20T11:06:15;10.63;;;6.23;;
11964;SDS011;6042;41.326;19.826;2022-10-20T11:08:52;14.87;;;7.40;;
11964;SDS011;6042;41.326;19.826;2022-10-20T11:11:35;9.57;;;6.40;;
11964;SDS011;6042;41.326;19.826;2022-10-20T11:14:15;7.87;;;6.40;;
11964;SDS011;6042;41.326;19.826;2022-10-20T11:16:57;12.53;;;6.60;;
11964;SDS011;6042;41.326;19.826;2022-10-20T11:19:39;14.77;;;7.80;;
11964;SDS011;6042;41.326;19.826;2022-10-20T11:22:21;13.30;;;6.90;;
11964;SDS011;6042;41.326;19.826;2022-10-20T11:24:59;13.23;;;6.50;;
11964;SDS011;6042;41.326;19.826;2022-10-20T11:27:35;21.73;;;7.50;;
11964;SDS011;6042;41.326;19.826;2022-10-20T11:30:11;9.60;;;6.40;;
11964;SDS011;6042;41.326;19.826;2022-10-20T11:32:46;21.67;;;7.10;;
11964;SDS011;6042;41.326;19.826;2022-10-20T11:35:22;12.90;;;7.17;;
11964;SDS011;6042;41.326;19.826;2022-10-20T11:38:02;16.47;;;7.37;;
11964;SDS011;6042;41.326;19.826;2022-10-20T11:40:42;22.93;;;9.07;;
11964;SDS011;6042;41.326;19.826;2022-10-20T11:43:15;8.57;;;6.27;;
11964;SDS011;6042;41.326;19.826;2022-10-20T11:45:48;7.27;;;6.53;;
11964;SDS011;6042;41.326;19.826;2022-10-20T11:48:24;8.80;;;5.93;;
11964;SDS011;6042;41.326;19.826;2022-10-20T11:51:06;9.80;;;6.40;;
11964;SDS011;6042;41.326;19.826;2022-10-20T11:53:55;7.80;;;6.53;;
11964;SDS011;6042;41.326;19.826;2022-10-20T11:56:47;11.50;;;8.33;;
11964;SDS011;6042;41.326;19.826;2022-10-20T12:02:29;15.03;;;6.53;;
11964;SDS011;6042;41.326;19.826;2022-10-20T12:05:30;14.03;;;8.10;;
11964;SDS011;6042;41.326;19.826;2022-10-20T12:08:26;9.07;;;5.40;;
11964;SDS011;6042;41.326;19.826;2022-10-20T12:11:13;14.57;;;6.13;;
11964;SDS011;6042;41.326;19.826;2022-10-20T12:13:50;6.43;;;4.77;;
11964;SDS011;6042;41.326;19.826;2022-10-20T12:19:41;17.30;;;6.93;;
11964;SDS011;6042;41.326;19.826;2022-10-20T12:25:33;14.57;;;6.07;;
11964;SDS011;6042;41.326;19.826;2022-10-20T12:31:08;10.60;;;5.20;;
11964;SDS011;6042;41.326;19.826;2022-10-20T12:33:41;7.63;;;5.20;;
11964;SDS011;6042;41.326;19.826;2022-10-20T12:36:39;12.37;;;5.30;;
11964;SDS011;6042;41.326;19.826;2022-10-20T12:39:19;8.57;;;5.13;;
11964;SDS011;6042;41.326;19.826;2022-10-20T12:41:55;10.27;;;6.47;;
11964;SDS011;6042;41.326;19.826;2022-10-20T12:44:26;11.70;;;5.80;;
11964;SDS011;6042;41.326;19.826;2022-10-20T12:46:58;15.63;;;6.17;;
11964;SDS011;6042;41.326;19.826;2022-10-20T12:49:32;12.97;;;6.33;;
11964;SDS011;6042;41.326;19.826;2022-10-20T12:52:02;32.27;;;9.07;;
11964;SDS011;6042;41.326;19.826;2022-10-20T12:54:36;16.97;;;7.57;;
11964;SDS011;6042;41.326;19.826;2022-10-20T12:57:24;12.30;;;6.17;;
11964;SDS011;6042;41.326;19.826;2022-10-20T12:59:57;16.23;;;5.67;;
11964;SDS011;6042;41.326;19.826;2022-10-20T13:14:18;8.80;;;5.17;;
11964;SDS011;6042;41.326;19.826;2022-10-20T13:16:57;12.50;;;6.43;;
11964;SDS011;6042;41.326;19.826;2022-10-20T13:19:32;10.83;;;6.93;;
11964;SDS011;6042;41.326;19.826;2022-10-20T13:22:26;7.57;;;5.10;;
11964;SDS011;6042;41.326;19.826;2022-10-20T13:25:12;14.43;;;8.50;;
11964;SDS011;6042;41.326;19.826;2022-10-20T13:27:48;21.40;;;6.90;;
11964;SDS011;6042;41.326;19.826;2022-10-20T13:30:18;9.80;;;5.60;;
11964;SDS011;6042;41.326;19.826;2022-10-20T13:32:51;9.10;;;6.20;;
11964;SDS011;6042;41.326;19.826;2022-10-20T13:35:48;16.47;;;6.23;;
11964;SDS011;6042;41.326;19.826;2022-10-20T13:38:23;12.17;;;6.37;;
11964;SDS011;6042;41.326;19.826;2022-10-20T13:41:01;8.93;;;5.60;;
11964;SDS011;6042;41.326;19.826;2022-10-20T13:43:41;12.13;;;5.97;;
11964;SDS011;6042;41.326;19.826;2022-10-20T13:46:30;6.57;;;4.63;;
11964;SDS011;6042;41.326;19.826;2022-10-20T13:49:16;6.40;;;5.10;;
11964;SDS011;6042;41.326;19.826;2022-10-20T13:51:53;6.07;;;5.47;;
11964;SDS011;6042;41.326;19.826;2022-10-20T13:54:27;10.67;;;5.80;;
11964;SDS011;6042;41.326;19.826;2022-10-20T13:56:59;5.53;;;4.80;;
11964;SDS011;6042;41.326;19.826;2022-10-20T13:59:30;7.43;;;4.70;;
11964;SDS011;6042;41.326;19.826;2022-10-20T14:01:59;4.93;;;3.97;;
11964;SDS011;6042;41.326;19.826;2022-10-20T14:04:31;6.53;;;4.03;;
11964;SDS011;6042;41.326;19.826;2022-10-20T14:07:03;8.83;;;4.20;;
11964;SDS011;6042;41.326;19.826;2022-10-20T14:09:34;4.70;;;3.97;;
11964;SDS011;6042;41.326;19.826;2022-10-20T14:12:09;5.83;;;3.83;;
11964;SDS011;6042;41.326;19.826;2022-10-20T14:14:44;7.67;;;4.23;;
11964;SDS011;6042;41.326;19.826;2022-10-20T14:17:16;4.50;;;3.87;;
11964;SDS011;6042;41.326;19.826;2022-10-20T14:19:47;6.07;;;4.30;;
11964;SDS011;6042;41.326;19.826;2022-10-20T14:22:18;4.80;;;3.73;;
11964;SDS011;6042;41.326;19.826;2022-10-20T14:24:50;3.93;;;3.43;;
11964;SDS011;6042;41.326;19.826;2022-10-20T14:27:22;6.27;;;3.80;;
11964;SDS011;6042;41.326;19.826;2022-10-20T14:29:55;5.63;;;3.73;;
11964;SDS011;6042;41.326;19.826;2022-10-20T14:32:26;5.67;;;3.87;;
11964;SDS011;6042;41.326;19.826;2022-10-20T14:34:57;3.33;;;3.03;;
11964;SDS011;6042;41.326;19.826;2022-10-20T14:37:28;8.13;;;3.93;;
11964;SDS011;6042;41.326;19.826;2022-10-20T14:40:01;6.00;;;3.80;;
11964;SDS011;6042;41.326;19.826;2022-10-20T14:42:32;5.03;;;3.60;;
11964;SDS011;6042;41.326;19.826;2022-10-20T14:45:04;6.57;;;3.37;;
11964;SDS011;6042;41.326;19.826;2022-10-20T14:47:37;4.87;;;3.30;;
11964;SDS011;6042;41.326;19.826;2022-10-20T14:50:17;3.63;;;3.07;;
11964;SDS011;6042;41.326;19.826;2022-10-20T14:52:47;4.73;;;3.33;;
11964;SDS011;6042;41.326;19.826;2022-10-20T14:55:29;4.17;;;3.37;;
11964;SDS011;6042;41.326;19.826;2022-10-20T14:57:59;4.63;;;3.47;;
11964;SDS011;6042;41.326;19.826;2022-10-20T15:00:31;5.70;;;3.73;;
11964;SDS011;6042;41.326;19.826;2022-10-20T15:03:04;8.87;;;3.80;;
11964;SDS011;6042;41.326;19.826;2022-10-20T15:05:38;7.43;;;3.40;;
11964;SDS011;6042;41.326;19.826;2022-10-20T15:08:10;5.57;;;4.10;;
11964;SDS011;6042;41.326;19.826;2022-10-20T15:10:45;7.23;;;4.17;;
11964;SDS011;6042;41.326;19.826;2022-10-20T15:13:20;6.87;;;3.80;;
11964;SDS011;6042;41.326;19.826;2022-10-20T15:15:55;5.87;;;3.70;;
11964;SDS011;6042;41.326;19.826;2022-10-20T15:18:25;8.30;;;4.03;;
11964;SDS011;6042;41.326;19.826;2022-10-20T15:20:54;8.83;;;4.17;;
11964;SDS011;6042;41.326;19.826;2022-10-20T15:23:24;8.90;;;4.60;;
11964;SDS011;6042;41.326;19.826;2022-10-20T15:25:54;5.77;;;4.87;;
11964;SDS011;6042;41.326;19.826;2022-10-20T15:28:30;10.80;;;5.07;;
11964;SDS011;6042;41.326;19.826;2022-10-20T15:31:05;16.27;;;5.73;;
11964;SDS011;6042;41.326;19.826;2022-10-20T15:33:42;12.43;;;4.87;;
11964;SDS011;6042;41.326;19.826;2022-10-20T15:36:11;16.97;;;5.33;;
11964;SDS011;6042;41.326;19.826;2022-10-20T15:38:41;12.90;;;5.57;;